Time;durP1;ratioP1;P1;durP2;ratioP2;P2;SDS_P1;SDS_P2;PMS_P1;PMS_P2;Temp;Humidity;BMP_temperature;BMP_pressure;BME280_temperature;BME280_humidity;BME280_pressure;Samples;Min_cycle;Max_cycle;Signal;HPM_P1;HPM_P2
2022/08/08 00:02:14;;;;;;;3.58;1.90;;;20.20;99.90;;;;;;5019030;28;20045;-74
2022/08/08 00:04:48;;;;;;;3.60;1.42;;;20.40;99.90;;;;;;5024016;28;20030;-74
2022/08/08 00:07:19;;;;;;;3.65;1.60;;;20.40;99.90;;;;;;5024293;28;20061;-74
2022/08/08 00:09:50;;;;;;;4.40;1.45;;;20.30;99.90;;;;;;5026011;28;20030;-75
2022/08/08 00:12:24;;;;;;;3.28;1.70;;;20.10;99.90;;;;;;5017791;28;20033;-74
2022/08/08 00:14:57;;;;;;;3.10;1.80;;;19.90;99.90;;;;;;5027248;28;20156;-74
2022/08/08 00:17:37;;;;;;;3.87;1.60;;;19.80;99.90;;;;;;5020938;28;21113;-74
2022/08/08 00:20:07;;;;;;;3.03;1.70;;;19.90;99.90;;;;;;5023879;28;20042;-74
2022/08/08 00:22:44;;;;;;;5.55;1.95;;;19.90;99.90;;;;;;5025466;28;20056;-74
2022/08/08 00:25:32;;;;;;;3.15;1.50;;;19.80;99.90;;;;;;5019797;28;20045;-75
2022/08/08 00:28:00;;;;;;;3.88;2.00;;;19.70;99.90;;;;;;5024256;28;20510;-75
2022/08/08 00:30:33;;;;;;;4.65;1.95;;;19.70;99.90;;;;;;5026655;28;20033;-74
2022/08/08 00:33:14;;;;;;;4.40;1.70;;;19.60;99.90;;;;;;5023466;28;20040;-74
2022/08/08 00:35:47;;;;;;;3.08;1.63;;;19.60;99.90;;;;;;5032097;28;20620;-74
2022/08/08 00:38:39;;;;;;;4.68;1.90;;;19.60;99.90;;;;;;5030344;28;20045;-74
2022/08/08 00:41:32;;;;;;;5.03;1.70;;;19.70;99.90;;;;;;5025606;28;20072;-75
2022/08/08 00:44:15;;;;;;;4.20;2.05;;;19.80;99.90;;;;;;5028836;28;20068;-74
2022/08/08 00:46:44;;;;;;;4.20;1.98;;;19.80;99.90;;;;;;5025104;28;20564;-74
2022/08/08 00:49:40;;;;;;;5.25;2.10;;;19.90;99.90;;;;;;5022783;28;20029;-74
2022/08/08 00:52:43;;;;;;;3.58;1.80;;;19.90;99.90;;;;;;5018554;28;20030;-75
2022/08/08 00:55:39;;;;;;;2.83;1.67;;;19.80;99.90;;;;;;5020304;28;20105;-75
2022/08/08 00:58:28;;;;;;;3.20;2.03;;;19.70;99.90;;;;;;5014206;28;20050;-74
2022/08/08 01:01:06;;;;;;;3.72;2.00;;;19.70;99.90;;;;;;5022325;28;20053;-75
2022/08/08 01:04:03;;;;;;;3.40;1.70;;;19.70;99.90;;;;;;5020606;28;20030;-74
2022/08/08 01:06:48;;;;;;;3.67;1.33;;;19.70;99.90;;;;;;5018784;28;20124;-74
2022/08/08 01:09:13;;;;;;;3.00;1.80;;;19.60;99.90;;;;;;5051191;28;20029;-74
2022/08/08 01:12:03;;;;;;;2.55;1.55;;;19.50;99.90;;;;;;5049281;28;20036;-74
2022/08/08 01:14:32;;;;;;;4.30;1.70;;;19.50;99.90;;;;;;5050984;28;20025;-74
2022/08/08 01:17:18;;;;;;;3.95;2.42;;;19.50;99.90;;;;;;5051360;28;20041;-74
2022/08/08 01:20:02;;;;;;;4.88;2.08;;;19.50;99.90;;;;;;5052362;28;20032;-74
2022/08/08 01:22:37;;;;;;;4.65;1.50;;;19.40;99.90;;;;;;5048416;28;20032;-74
2022/08/08 01:25:21;;;;;;;3.15;1.90;;;19.30;99.90;;;;;;5053191;28;20025;-74
2022/08/08 01:28:00;;;;;;;3.35;1.40;;;19.30;99.90;;;;;;5051206;28;20052;-74
2022/08/08 01:30:50;;;;;;;5.88;2.25;;;19.30;99.90;;;;;;5042319;28;20044;-74
2022/08/08 01:33:40;;;;;;;3.80;2.22;;;19.30;99.90;;;;;;5051201;28;20558;-74
2022/08/08 01:36:36;;;;;;;3.45;1.90;;;19.20;99.90;;;;;;5052037;28;20036;-74
2022/08/08 01:39:39;;;;;;;3.20;1.83;;;19.20;99.90;;;;;;5049084;28;20409;-74
2022/08/08 01:42:16;;;;;;;7.68;2.65;;;19.20;99.90;;;;;;5046163;28;20037;-74
2022/08/08 01:44:45;;;;;;;4.88;1.95;;;19.20;99.90;;;;;;5052449;28;20088;-74
2022/08/08 01:47:19;;;;;;;3.22;1.88;;;19.20;99.90;;;;;;5050936;28;20123;-74
2022/08/08 01:50:03;;;;;;;4.22;1.60;;;19.10;99.90;;;;;;5048459;28;20108;-74
2022/08/08 01:52:39;;;;;;;2.80;1.75;;;19.10;99.90;;;;;;5031507;28;20489;-74
2022/08/08 01:55:16;;;;;;;3.35;1.70;;;19.10;99.90;;;;;;5043912;28;20028;-74
2022/08/08 01:57:54;;;;;;;3.03;1.85;;;19.20;99.90;;;;;;5051215;28;20124;-74
2022/08/08 02:00:25;;;;;;;3.63;1.80;;;19.20;99.90;;;;;;5050961;28;20025;-74
2022/08/08 02:03:05;;;;;;;2.95;1.80;;;19.20;99.90;;;;;;5051175;28;20509;-74
2022/08/08 02:05:55;;;;;;;3.50;1.88;;;19.10;99.90;;;;;;5049605;28;20033;-74
2022/08/08 02:08:32;;;;;;;3.00;1.75;;;19.10;99.90;;;;;;5042615;28;20041;-74
2022/08/08 02:11:00;;;;;;;3.80;2.40;;;19.10;99.90;;;;;;5049684;28;20529;-74
2022/08/08 02:13:37;;;;;;;4.28;1.70;;;19.10;99.90;;;;;;5051872;28;20570;-74
2022/08/08 02:16:25;;;;;;;8.35;2.60;;;19.20;99.90;;;;;;5049005;28;20518;-74
2022/08/08 02:19:13;;;;;;;3.95;2.00;;;19.30;99.90;;;;;;5051331;28;20025;-75
2022/08/08 02:25:12;;;;;;;;;;;19.10;99.90;;;;;;5048210;28;20071;-75
2022/08/08 02:28:00;;;;;;;5.03;2.20;;;19.10;99.90;;;;;;5050909;28;19909;-74
2022/08/08 02:30:44;;;;;;;4.30;1.58;;;19.00;99.90;;;;;;5046600;28;20650;-74
2022/08/08 02:33:55;;;;;;;3.25;1.75;;;19.00;99.90;;;;;;5049975;28;20032;-74
2022/08/08 02:36:33;;;;;;;3.63;2.10;;;19.30;99.90;;;;;;5028778;28;20108;-74
2022/08/08 02:39:01;;;;;;;4.63;2.10;;;19.20;99.90;;;;;;5049475;28;20053;-74
2022/08/08 02:41:42;;;;;;;3.20;1.88;;;19.20;99.90;;;;;;5049529;28;20033;-74
2022/08/08 02:44:38;;;;;;;2.92;1.67;;;19.20;99.90;;;;;;5048202;28;20112;-74
2022/08/08 02:47:31;;;;;;;6.00;2.33;;;19.30;99.90;;;;;;5050399;28;20103;-74
2022/08/08 02:50:18;;;;;;;5.20;2.40;;;19.30;99.90;;;;;;5048365;28;20028;-74
2022/08/08 02:53:09;;;;;;;4.13;2.10;;;19.30;99.90;;;;;;5048051;28;20482;-74
2022/08/08 02:55:41;;;;;;;4.03;1.73;;;19.30;99.90;;;;;;5020344;28;20180;-74
2022/08/08 02:58:15;;;;;;;3.63;1.88;;;19.30;99.90;;;;;;5048596;28;20560;-74
2022/08/08 03:01:06;;;;;;;3.75;1.90;;;19.20;99.90;;;;;;5040829;28;20033;-73
2022/08/08 03:03:53;;;;;;;7.20;2.13;;;19.00;99.90;;;;;;5036105;28;20041;-73
2022/08/08 03:06:58;;;;;;;4.30;2.38;;;18.80;99.90;;;;;;5041969;28;20049;-73
2022/08/08 03:09:45;;;;;;;3.53;1.88;;;18.70;99.90;;;;;;5042568;28;20690;-74
2022/08/08 03:12:39;;;;;;;6.60;2.10;;;18.80;99.90;;;;;;5040285;28;20040;-73
2022/08/08 03:15:23;;;;;;;3.72;2.00;;;18.80;99.90;;;;;;5046506;28;20040;-73
2022/08/08 03:18:00;;;;;;;2.90;1.70;;;18.80;99.90;;;;;;5039371;28;20363;-73
2022/08/08 03:20:26;;;;;;;3.58;1.90;;;18.80;99.90;;;;;;5041217;28;20057;-73
2022/08/08 03:22:53;;;;;;;3.92;2.00;;;18.80;99.90;;;;;;5043331;28;20064;-73
2022/08/08 03:25:22;;;;;;;4.25;1.77;;;18.80;99.90;;;;;;5045040;28;20033;-73
2022/08/08 03:28:01;;;;;;;3.78;1.70;;;18.90;99.90;;;;;;5042195;28;20017;-73
2022/08/08 03:30:27;;;;;;;3.67;2.05;;;18.80;99.90;;;;;;5041343;28;20037;-74
2022/08/08 03:35:39;;;;;;;5.22;2.10;;;18.70;99.90;;;;;;5040396;28;20490;-73
2022/08/08 03:38:05;;;;;;;3.97;2.22;;;18.60;99.90;;;;;;5043073;28;20360;-73
2022/08/08 03:40:31;;;;;;;4.90;2.00;;;18.60;99.90;;;;;;5045004;28;20025;-73
2022/08/08 03:42:58;;;;;;;3.97;1.98;;;18.60;99.90;;;;;;5044739;28;20037;-73
2022/08/08 03:45:25;;;;;;;3.95;2.42;;;18.70;99.90;;;;;;5045880;28;20094;-73
2022/08/08 03:48:02;;;;;;;5.00;2.00;;;18.80;99.90;;;;;;5044586;28;20044;-73
2022/08/08 03:50:30;;;;;;;4.35;1.95;;;18.90;99.90;;;;;;5041641;28;20483;-73
2022/08/08 03:53:04;;;;;;;4.47;2.17;;;18.90;99.90;;;;;;5045227;28;20036;-73
2022/08/08 03:55:30;;;;;;;4.53;2.10;;;19.10;99.90;;;;;;5045500;28;20037;-73
2022/08/08 03:57:56;;;;;;;3.28;1.90;;;19.20;99.90;;;;;;5042825;28;20379;-73
2022/08/08 04:00:25;;;;;;;5.13;2.85;;;19.10;99.90;;;;;;5038854;28;20505;-73
2022/08/08 04:02:59;;;;;;;4.05;1.90;;;19.10;99.90;;;;;;5044080;28;20021;-73
2022/08/08 04:05:30;;;;;;;4.97;2.20;;;19.00;99.90;;;;;;5045803;28;20136;-73
2022/08/08 04:07:57;;;;;;;3.15;1.90;;;18.80;99.90;;;;;;5043715;28;20087;-73
2022/08/08 04:10:24;;;;;;;5.28;2.38;;;18.80;99.90;;;;;;5044384;28;20120;-73
2022/08/08 04:12:49;;;;;;;4.03;2.20;;;18.70;99.90;;;;;;5044311;28;20033;-73
2022/08/08 04:15:15;;;;;;;5.05;2.30;;;18.70;99.90;;;;;;5044832;28;20082;-73
2022/08/08 04:17:41;;;;;;;3.83;1.73;;;18.50;99.90;;;;;;5045126;28;20033;-74
2022/08/08 04:20:07;;;;;;;3.92;2.25;;;18.60;99.90;;;;;;5046421;28;20044;-74
2022/08/08 04:22:33;;;;;;;3.40;1.75;;;18.50;99.90;;;;;;5042172;28;20113;-73
2022/08/08 04:24:59;;;;;;;4.13;2.00;;;18.30;99.90;;;;;;5041609;28;20561;-73
2022/08/08 04:27:25;;;;;;;4.38;1.60;;;18.30;99.90;;;;;;5043945;28;20059;-73
2022/08/08 04:29:51;;;;;;;3.13;1.65;;;18.20;99.90;;;;;;5042542;28;20036;-73
2022/08/08 04:32:17;;;;;;;4.15;1.88;;;18.20;99.90;;;;;;5045197;28;20483;-73
2022/08/08 04:34:43;;;;;;;5.30;2.30;;;18.20;99.90;;;;;;5052566;28;20032;-73
2022/08/08 04:37:10;;;;;;;5.65;2.40;;;18.20;99.90;;;;;;5052291;28;20128;-73
2022/08/08 04:39:35;;;;;;;4.00;2.28;;;18.10;99.90;;;;;;5049689;28;20087;-74
2022/08/08 04:42:01;;;;;;;3.72;1.80;;;18.10;99.90;;;;;;5047759;28;20037;-73
2022/08/08 04:44:27;;;;;;;4.43;2.00;;;18.30;99.90;;;;;;5048139;28;20100;-73
2022/08/08 04:46:53;;;;;;;4.57;2.47;;;18.40;99.90;;;;;;5048087;28;20032;-73
2022/08/08 04:49:19;;;;;;;3.75;2.53;;;18.40;99.90;;;;;;5045780;28;20065;-75
2022/08/08 04:51:44;;;;;;;3.90;2.30;;;18.50;99.90;;;;;;5048504;28;20436;-73
2022/08/08 04:54:10;;;;;;;3.25;1.80;;;18.50;99.90;;;;;;5048059;28;20498;-73
2022/08/08 04:56:37;;;;;;;4.07;2.13;;;18.50;99.90;;;;;;5046470;28;20124;-73
2022/08/08 04:59:03;;;;;;;5.18;2.22;;;18.70;99.90;;;;;;5047543;28;20036;-74
2022/08/08 05:01:29;;;;;;;3.20;1.98;;;18.70;99.90;;;;;;5044154;28;20150;-73
2022/08/08 05:03:55;;;;;;;5.93;1.85;;;18.80;99.90;;;;;;5045948;28;20853;-73
2022/08/08 05:06:20;;;;;;;3.97;1.75;;;19.00;99.90;;;;;;5044010;28;20073;-73
2022/08/08 05:08:46;;;;;;;6.30;2.03;;;19.20;99.90;;;;;;5045811;28;20120;-73
2022/08/08 05:11:13;;;;;;;3.80;2.05;;;19.20;99.90;;;;;;5046725;28;20458;-73
2022/08/08 05:13:42;;;;;;;3.88;2.45;;;19.20;99.90;;;;;;5046961;28;20344;-73
2022/08/08 05:16:08;;;;;;;4.50;2.17;;;19.20;99.90;;;;;;5044919;28;20069;-73
2022/08/08 05:18:38;;;;;;;3.50;1.90;;;19.10;99.90;;;;;;5048194;28;20052;-73
2022/08/08 05:21:05;;;;;;;3.63;2.00;;;19.10;99.90;;;;;;5047433;28;20106;-73
2022/08/08 05:23:31;;;;;;;4.38;2.03;;;19.10;99.90;;;;;;5046439;28;20227;-73
2022/08/08 05:25:58;;;;;;;5.88;2.78;;;19.10;99.90;;;;;;5044929;28;20038;-73
2022/08/08 05:28:24;;;;;;;4.90;2.10;;;19.20;99.90;;;;;;5047263;28;20099;-73
2022/08/08 05:30:50;;;;;;;4.43;2.35;;;19.20;99.90;;;;;;5045610;28;20502;-74
2022/08/08 05:33:16;;;;;;;4.40;2.40;;;19.40;99.90;;;;;;5050793;28;20095;-76
2022/08/08 05:35:44;;;;;;;3.83;2.00;;;19.50;99.90;;;;;;5051071;28;20025;-76
2022/08/08 05:38:13;;;;;;;4.60;2.30;;;19.50;99.90;;;;;;5048284;28;20037;-72
2022/08/08 05:40:49;;;;;;;7.80;2.28;;;19.50;99.90;;;;;;5047191;28;20045;-72
2022/08/08 05:43:27;;;;;;;2.60;1.65;;;19.50;99.90;;;;;;5036549;28;20112;-72
2022/08/08 05:45:58;;;;;;;6.47;1.98;;;19.50;99.90;;;;;;5044107;28;20040;-72
2022/08/08 05:48:24;;;;;;;3.80;2.10;;;19.50;99.90;;;;;;5036054;28;20024;-72
2022/08/08 05:50:50;;;;;;;4.43;2.08;;;19.70;99.90;;;;;;5035288;28;20151;-72
2022/08/08 05:53:24;;;;;;;4.05;2.25;;;19.70;99.90;;;;;;5040945;28;20052;-72
2022/08/08 05:55:52;;;;;;;4.20;2.08;;;19.80;99.90;;;;;;5041517;28;20086;-72
2022/08/08 05:58:19;;;;;;;5.65;2.20;;;19.90;99.90;;;;;;5041858;28;20382;-72
2022/08/08 06:00:47;;;;;;;5.05;2.00;;;19.80;99.90;;;;;;5038219;28;20025;-72
2022/08/08 06:03:15;;;;;;;5.85;2.20;;;19.80;99.90;;;;;;5028973;28;20049;-72
2022/08/08 06:05:57;;;;;;;4.78;2.13;;;19.90;99.90;;;;;;5030743;28;20041;-72
2022/08/08 06:08:48;;;;;;;2.83;1.77;;;19.90;99.90;;;;;;5036328;28;20425;-72
2022/08/08 06:11:14;;;;;;;3.72;1.90;;;20.00;99.90;;;;;;5036498;28;20399;-72
2022/08/08 06:13:40;;;;;;;5.78;2.35;;;20.10;99.90;;;;;;5041128;28;20088;-72
2022/08/08 06:16:06;;;;;;;4.57;2.13;;;20.10;99.90;;;;;;5046266;28;20036;-72
2022/08/08 06:18:32;;;;;;;5.88;2.08;;;20.10;99.90;;;;;;5041054;28;20123;-72
2022/08/08 06:21:00;;;;;;;6.38;2.63;;;20.20;99.90;;;;;;5034633;28;20028;-72
2022/08/08 06:23:26;;;;;;;3.72;2.13;;;20.30;99.90;;;;;;5044071;28;20041;-72
2022/08/08 06:26:05;;;;;;;3.97;1.67;;;20.50;99.90;;;;;;5025242;28;20034;-71
2022/08/08 06:28:42;;;;;;;3.25;1.80;;;20.60;99.90;;;;;;5042406;28;20029;-72
2022/08/08 06:31:10;;;;;;;5.68;2.30;;;20.80;99.90;;;;;;5037539;28;20032;-72
2022/08/08 06:33:58;;;;;;;8.18;2.60;;;21.00;99.90;;;;;;5041487;28;20056;-73
2022/08/08 06:36:34;;;;;;;3.33;1.90;;;21.20;99.90;;;;;;5031256;28;20037;-72
2022/08/08 06:39:01;;;;;;;4.63;2.50;;;21.30;99.90;;;;;;5041904;28;20513;-72
2022/08/08 06:41:29;;;;;;;4.70;2.50;;;21.50;99.90;;;;;;5041941;28;20017;-72
2022/08/08 06:43:57;;;;;;;5.22;1.85;;;21.60;99.90;;;;;;5025513;28;20037;-72
2022/08/08 06:46:22;;;;;;;3.55;2.22;;;21.70;99.90;;;;;;5042168;28;20056;-72
2022/08/08 06:48:48;;;;;;;3.30;1.95;;;21.70;99.90;;;;;;5044446;28;20080;-72
2022/08/08 06:51:15;;;;;;;5.05;2.42;;;21.90;99.90;;;;;;5044826;28;20055;-72
2022/08/08 06:53:41;;;;;;;4.18;2.53;;;22.00;99.90;;;;;;5042794;28;20028;-72
2022/08/08 06:56:07;;;;;;;6.32;2.55;;;22.10;99.90;;;;;;5045748;28;20115;-72
2022/08/08 06:58:34;;;;;;;4.63;2.65;;;22.30;99.90;;;;;;5042795;28;20144;-72
2022/08/08 07:01:02;;;;;;;5.22;2.00;;;22.40;99.90;;;;;;5045707;28;20029;-72
2022/08/08 07:03:50;;;;;;;3.65;1.83;;;22.70;99.90;;;;;;5032587;28;20044;-73
2022/08/08 07:06:30;;;;;;;5.50;2.60;;;22.70;99.90;;;;;;5036855;28;20056;-72
2022/08/08 07:09:19;;;;;;;5.10;2.63;;;22.90;99.90;;;;;;5033359;28;20053;-73
2022/08/08 07:11:49;;;;;;;3.92;2.50;;;23.00;99.90;;;;;;5035189;28;20414;-72
2022/08/08 07:14:34;;;;;;;4.50;1.90;;;23.50;99.90;;;;;;5034562;28;20029;-72
2022/08/08 07:17:03;;;;;;;5.72;2.35;;;24.00;99.90;;;;;;5035139;28;20040;-72
2022/08/08 07:20:04;;;;;;;4.38;2.30;;;24.80;99.90;;;;;;5038878;28;20052;-72
2022/08/08 07:22:52;;;;;;;4.65;2.22;;;26.00;98.40;;;;;;5038855;28;20498;-73
2022/08/08 07:25:20;;;;;;;3.83;2.45;;;27.20;96.00;;;;;;5034795;28;20120;-72
2022/08/08 07:27:49;;;;;;;4.30;2.47;;;28.20;94.90;;;;;;5036792;28;20049;-72
2022/08/08 07:30:15;;;;;;;3.78;2.35;;;29.50;93.80;;;;;;5038537;28;20044;-72
2022/08/08 07:32:41;;;;;;;4.10;2.30;;;30.20;93.00;;;;;;5044017;28;20029;-72
2022/08/08 07:35:08;;;;;;;4.00;2.22;;;30.60;92.30;;;;;;5041622;28;20032;-72
2022/08/08 07:37:35;;;;;;;3.67;2.35;;;30.60;91.90;;;;;;5041998;28;20669;-72
2022/08/08 07:40:02;;;;;;;4.25;2.35;;;30.10;91.90;;;;;;5036122;28;20112;-72
2022/08/08 07:42:31;;;;;;;4.00;2.35;;;29.70;92.40;;;;;;5045481;28;20037;-72
2022/08/08 07:44:57;;;;;;;3.75;2.20;;;29.20;92.30;;;;;;5044167;28;20033;-72
2022/08/08 07:47:23;;;;;;;3.88;2.58;;;28.90;93.40;;;;;;5036335;28;20036;-72
2022/08/08 07:49:48;;;;;;;3.92;2.60;;;29.10;93.40;;;;;;5036055;28;20040;-72
2022/08/08 07:52:14;;;;;;;4.53;2.60;;;29.00;92.00;;;;;;5039621;28;20104;-72
2022/08/08 07:55:02;;;;;;;3.78;2.13;;;28.80;92.70;;;;;;5042025;28;20071;-72
2022/08/08 07:57:39;;;;;;;4.57;2.58;;;27.70;94.30;;;;;;5041631;28;20038;-72
2022/08/08 08:00:08;;;;;;;4.88;2.75;;;26.00;95.50;;;;;;5038998;28;20033;-73
2022/08/08 08:03:17;;;;;;;5.03;3.05;;;25.40;96.90;;;;;;5035952;28;20029;-72
2022/08/08 08:05:48;;;;;;;4.03;2.42;;;25.10;97.40;;;;;;4955066;28;20058;-73
2022/08/08 08:08:25;;;;;;;6.45;2.40;;;24.90;97.70;;;;;;4961879;28;20118;-72
2022/08/08 08:10:54;;;;;;;5.38;2.70;;;24.40;97.80;;;;;;5005768;28;20049;-72
2022/08/08 08:13:33;;;;;;;6.20;3.00;;;24.40;97.80;;;;;;5045684;28;20513;-72
2022/08/08 08:16:29;;;;;;;5.88;2.65;;;24.20;98.10;;;;;;5045654;28;20056;-72
2022/08/08 08:19:00;;;;;;;5.45;2.95;;;24.50;99.10;;;;;;5034423;28;20045;-72
2022/08/08 08:21:29;;;;;;;4.78;2.92;;;24.70;99.50;;;;;;5038120;28;20036;-73
2022/08/08 08:23:55;;;;;;;5.03;2.92;;;24.70;97.70;;;;;;5040198;28;20037;-72
2022/08/08 08:26:20;;;;;;;5.88;3.58;;;26.30;96.40;;;;;;5046582;28;20068;-73
2022/08/08 08:28:47;;;;;;;9.13;3.03;;;27.30;95.10;;;;;;5047261;28;20068;-72
2022/08/08 08:31:13;;;;;;;4.65;2.90;;;28.30;93.80;;;;;;5046287;28;20029;-72
2022/08/08 08:33:39;;;;;;;7.25;3.10;;;28.90;93.10;;;;;;5045016;28;20474;-72
2022/08/08 08:36:12;;;;;;;3.20;2.25;;;28.70;93.50;;;;;;5046715;28;20029;-72
2022/08/08 08:38:38;;;;;;;8.00;2.90;;;29.00;93.60;;;;;;5045002;28;20059;-73
2022/08/08 08:41:05;;;;;;;5.53;3.13;;;28.60;93.30;;;;;;5039724;28;20056;-72
2022/08/08 08:43:33;;;;;;;4.30;2.95;;;28.80;93.30;;;;;;5043141;28;20037;-71
2022/08/08 08:46:00;;;;;;;4.88;2.72;;;28.10;93.40;;;;;;5039029;28;20036;-72
2022/08/08 08:48:26;;;;;;;4.38;2.90;;;27.70;94.20;;;;;;5046966;28;20029;-72
2022/08/08 08:50:54;;;;;;;5.40;3.03;;;27.00;94.20;;;;;;5042105;28;20025;-72
2022/08/08 08:53:20;;;;;;;4.20;3.00;;;26.60;94.40;;;;;;5045950;28;20657;-71
2022/08/08 08:55:48;;;;;;;4.78;2.60;;;26.70;94.80;;;;;;5048480;28;20111;-71
2022/08/08 08:58:31;;;;;;;4.20;2.63;;;26.20;95.80;;;;;;5040788;28;20047;-72
2022/08/08 09:00:59;;;;;;;5.65;2.58;;;26.00;95.60;;;;;;5047026;28;20017;-72
2022/08/08 09:03:26;;;;;;;5.75;2.90;;;25.90;95.80;;;;;;5040641;28;20033;-71
2022/08/08 09:05:53;;;;;;;6.22;4.15;;;25.90;95.80;;;;;;5046642;28;20045;-71
2022/08/08 09:08:22;;;;;;;4.35;3.13;;;26.00;96.30;;;;;;5045158;28;20037;-72
2022/08/08 09:10:48;;;;;;;5.40;2.83;;;26.00;95.00;;;;;;5045953;28;20392;-71
2022/08/08 09:13:16;;;;;;;4.13;3.20;;;25.50;94.70;;;;;;5048414;28;20451;-71
2022/08/08 09:15:42;;;;;;;6.25;2.85;;;25.50;95.30;;;;;;5050366;28;20029;-71
2022/08/08 09:18:08;;;;;;;4.32;2.60;;;26.00;95.50;;;;;;5045848;28;20482;-72
2022/08/08 09:20:36;;;;;;;5.45;2.72;;;26.20;95.90;;;;;;5043706;28;20060;-71
2022/08/08 09:23:02;;;;;;;4.15;2.55;;;25.90;95.20;;;;;;5047281;28;20033;-71
2022/08/08 09:25:29;;;;;;;6.15;3.40;;;26.00;95.70;;;;;;5049368;28;20119;-71
2022/08/08 09:27:57;;;;;;;4.45;2.65;;;26.20;95.10;;;;;;5045091;28;20029;-71
2022/08/08 09:30:25;;;;;;;5.93;3.17;;;26.40;95.30;;;;;;5045480;28;20071;-71
2022/08/08 09:32:53;;;;;;;3.65;2.45;;;26.40;94.80;;;;;;5044840;28;20063;-72
2022/08/08 09:35:23;;;;;;;4.97;3.30;;;26.30;95.40;;;;;;5035334;28;20033;-74
2022/08/08 09:37:52;;;;;;;4.25;2.70;;;26.70;95.00;;;;;;5046700;28;20058;-75
2022/08/08 09:40:25;;;;;;;5.65;2.88;;;26.80;95.00;;;;;;5050636;28;20029;-75
2022/08/08 09:43:28;;;;;;;4.18;2.95;;;26.80;94.00;;;;;;5041276;28;20652;-74
2022/08/08 09:46:00;;;;;;;3.75;2.60;;;26.50;94.60;;;;;;5033039;28;20043;-74
2022/08/08 09:48:30;;;;;;;7.22;2.75;;;27.20;94.70;;;;;;5044809;28;20071;-74
2022/08/08 09:50:57;;;;;;;5.28;2.58;;;27.10;94.30;;;;;;5044146;28;20100;-74
2022/08/08 09:53:41;;;;;;;5.05;2.42;;;27.30;93.70;;;;;;5045678;28;20037;-74
2022/08/08 09:56:09;;;;;;;;;;;27.40;94.30;;;;;;5042667;28;20031;-74
2022/08/08 09:58:40;;;;;;;4.05;2.40;;;27.30;93.10;;;;;;5044807;28;19916;-74
2022/08/08 10:01:10;;;;;;;4.78;2.83;;;27.10;93.60;;;;;;5044706;28;20534;-74
2022/08/08 10:03:39;;;;;;;4.45;2.47;;;27.10;93.70;;;;;;5043663;28;20410;-74
2022/08/08 10:06:15;;;;;;;3.92;2.78;;;27.20;93.90;;;;;;5043001;28;20664;-74
2022/08/08 10:08:48;;;;;;;5.72;2.42;;;27.50;93.60;;;;;;5044079;28;20056;-74
2022/08/08 10:11:22;;;;;;;4.35;2.85;;;27.60;93.40;;;;;;5041706;28;20020;-76
2022/08/08 10:13:51;;;;;;;;;;;27.50;93.20;;;;;;5045717;28;20025;-75
2022/08/08 10:16:17;;;;;;;3.40;2.40;;;27.70;93.20;;;;;;5045055;28;20377;-75
2022/08/08 10:18:43;;;;;;;4.22;2.63;;;27.60;93.10;;;;;;5040502;28;20032;-75
2022/08/08 10:21:10;;;;;;;4.20;2.72;;;27.60;93.50;;;;;;5041335;28;20029;-77
2022/08/08 10:23:40;;;;;;;4.10;2.42;;;27.80;94.30;;;;;;5047162;28;20032;-75
2022/08/08 10:26:14;;;;;;;3.75;2.47;;;27.90;93.80;;;;;;5035354;28;20055;-73
2022/08/08 10:28:51;;;;;;;;;;;28.00;92.90;;;;;;5052931;28;20029;-74
2022/08/08 10:34:04;;;;;;;2.78;1.90;;;28.10;92.40;;;;;;5047116;28;20044;-74
2022/08/08 10:36:30;;;;;;;4.55;2.50;;;28.30;92.00;;;;;;5041233;28;20029;-74
2022/08/08 10:39:01;;;;;;;3.67;2.70;;;28.20;92.10;;;;;;5045476;28;20024;-75
2022/08/08 10:41:30;;;;;;;3.50;2.33;;;28.10;92.70;;;;;;5043018;28;20056;-75
2022/08/08 10:43:57;;;;;;;5.55;2.78;;;28.10;92.20;;;;;;5040687;28;20029;-74
2022/08/08 10:46:27;;;;;;;5.30;2.60;;;28.10;92.60;;;;;;5037256;28;20091;-73
2022/08/08 10:48:54;;;;;;;4.90;2.38;;;28.10;91.90;;;;;;5045466;28;20048;-74
2022/08/08 10:51:28;;;;;;;4.50;2.60;;;27.80;91.70;;;;;;5040664;28;20119;-74
2022/08/08 10:53:54;;;;;;;;;;;28.10;91.40;;;;;;5041658;28;20552;-74
2022/08/08 10:56:21;;;;;;;5.15;2.50;;;28.10;91.90;;;;;;5046416;28;19913;-74
2022/08/08 10:58:56;;;;;;;4.75;2.58;;;28.50;92.20;;;;;;5039205;28;20044;-74
2022/08/08 11:01:28;;;;;;;4.32;2.78;;;28.80;91.90;;;;;;5041876;28;20044;-74
2022/08/08 11:03:59;;;;;;;5.40;2.40;;;28.80;92.60;;;;;;5045770;28;20498;-73
2022/08/08 11:06:29;;;;;;;5.47;2.80;;;29.10;92.80;;;;;;5039622;28;20079;-76
2022/08/08 11:09:07;;;;;;;6.90;2.53;;;29.20;92.40;;;;;;5039495;28;20048;-75
2022/08/08 11:11:43;;;;;;;3.65;2.50;;;28.80;91.10;;;;;;5045101;28;20529;-75
2022/08/08 11:14:12;;;;;;;4.15;2.85;;;28.80;92.20;;;;;;5043653;28;20029;-75
2022/08/08 11:16:43;;;;;;;3.35;2.20;;;28.90;91.80;;;;;;5048374;28;20041;-75
2022/08/08 11:19:09;;;;;;;7.03;2.35;;;29.00;91.40;;;;;;5044262;28;20522;-75
2022/08/08 11:21:44;;;;;;;3.30;2.17;;;29.30;91.30;;;;;;5047187;28;20025;-75
2022/08/08 11:24:11;;;;;;;3.72;2.38;;;29.40;91.00;;;;;;5045908;28;20036;-75
2022/08/08 11:26:39;;;;;;;4.20;2.30;;;29.50;91.20;;;;;;5053364;28;20601;-75
2022/08/08 11:29:06;;;;;;;3.60;2.10;;;29.60;92.10;;;;;;5042509;28;20592;-75
2022/08/08 11:31:39;;;;;;;3.70;2.30;;;29.40;91.50;;;;;;5043103;28;20036;-75
2022/08/08 11:34:05;;;;;;;4.40;2.50;;;29.60;91.50;;;;;;5043641;28;20029;-75
2022/08/08 11:36:32;;;;;;;4.85;2.85;;;29.30;91.70;;;;;;5039651;28;20367;-75
2022/08/08 11:38:58;;;;;;;4.15;2.67;;;29.40;91.70;;;;;;5045398;28;20380;-75
2022/08/08 11:41:25;;;;;;;5.10;2.80;;;29.20;92.00;;;;;;5051629;28;20029;-75
2022/08/08 11:43:53;;;;;;;3.58;2.20;;;29.30;92.50;;;;;;5049550;28;20036;-75
2022/08/08 11:46:22;;;;;;;3.97;2.65;;;29.20;91.00;;;;;;5047447;28;20073;-75
2022/08/08 11:48:49;;;;;;;3.88;2.40;;;29.30;90.90;;;;;;5049174;28;20889;-76
2022/08/08 11:51:17;;;;;;;5.68;2.88;;;29.60;91.60;;;;;;5050812;28;20043;-75
2022/08/08 11:53:43;;;;;;;5.50;2.20;;;29.60;91.80;;;;;;5048788;28;20033;-75
2022/08/08 11:56:18;;;;;;;6.63;2.67;;;29.70;90.60;;;;;;5050255;28;20033;-76
2022/08/08 11:58:44;;;;;;;5.05;2.35;;;29.70;90.50;;;;;;5049843;28;20179;-75
2022/08/08 12:01:10;;;;;;;3.30;2.40;;;30.10;91.00;;;;;;5051335;28;20430;-76
2022/08/08 12:03:46;;;;;;;4.53;2.67;;;30.10;90.40;;;;;;5048324;28;20040;-75
2022/08/08 12:06:16;;;;;;;2.97;2.15;;;30.00;90.30;;;;;;5032826;28;20667;-75
2022/08/08 12:08:43;;;;;;;4.13;2.50;;;29.50;90.50;;;;;;5046571;28;20087;-76
2022/08/08 12:11:17;;;;;;;6.50;2.58;;;29.70;91.10;;;;;;5048171;28;20029;-75
2022/08/08 12:13:43;;;;;;;3.40;2.30;;;29.60;92.10;;;;;;5044297;28;20025;-75
2022/08/08 12:16:11;;;;;;;4.13;2.40;;;29.90;91.60;;;;;;5048435;28;20708;-75
2022/08/08 12:19:10;;;;;;;4.13;2.25;;;29.70;90.80;;;;;;5049583;28;20110;-75
2022/08/08 12:21:35;;;;;;;3.47;2.22;;;29.70;91.10;;;;;;5050100;28;20632;-75
2022/08/08 12:24:08;;;;;;;7.40;2.50;;;29.70;90.70;;;;;;5049121;28;20059;-75
2022/08/08 12:26:42;;;;;;;5.55;2.20;;;29.70;90.70;;;;;;5047380;28;20061;-75
2022/08/08 12:29:24;;;;;;;3.55;2.35;;;29.90;91.40;;;;;;5047720;28;20033;-75
2022/08/08 12:32:05;;;;;;;3.92;2.13;;;30.00;90.50;;;;;;5044214;28;20037;-75
2022/08/08 12:34:41;;;;;;;3.33;2.08;;;29.80;90.30;;;;;;5048025;28;20040;-76
2022/08/08 12:37:25;;;;;;;3.63;2.10;;;29.90;90.50;;;;;;5046588;28;20041;-75
2022/08/08 12:39:51;;;;;;;;;;;30.00;91.90;;;;;;5048083;28;20493;-75
2022/08/08 12:42:17;;;;;;;4.80;2.90;;;30.10;92.20;;;;;;5047357;28;19909;-75
2022/08/08 12:44:44;;;;;;;3.38;2.20;;;30.10;91.30;;;;;;5049807;28;20091;-75
2022/08/08 12:47:10;;;;;;;4.03;2.35;;;30.10;91.50;;;;;;5049004;28;20468;-75
2022/08/08 12:49:39;;;;;;;3.47;2.00;;;30.10;91.70;;;;;;5051484;28;20032;-75
2022/08/08 12:52:06;;;;;;;3.25;1.95;;;30.10;91.00;;;;;;5046947;28;20200;-75
2022/08/08 12:54:36;;;;;;;3.72;2.38;;;30.00;90.60;;;;;;5048207;28;20075;-76
2022/08/08 12:57:19;;;;;;;4.07;2.30;;;30.20;91.80;;;;;;5049184;28;20068;-75
2022/08/08 12:59:52;;;;;;;5.22;2.28;;;30.30;90.10;;;;;;5048741;28;20031;-76
2022/08/08 13:02:23;;;;;;;4.50;2.25;;;30.20;90.70;;;;;;5046467;28;20382;-75
2022/08/08 13:04:50;;;;;;;5.28;2.38;;;30.40;89.60;;;;;;5048970;28;20415;-75
2022/08/08 13:07:16;;;;;;;3.45;2.35;;;30.40;88.70;;;;;;5048958;28;20097;-76
2022/08/08 13:09:58;;;;;;;8.00;2.08;;;30.50;90.00;;;;;;5050247;28;20033;-75
2022/08/08 13:12:31;;;;;;;2.42;1.75;;;30.60;90.50;;;;;;5048607;28;20422;-75
2022/08/08 13:14:59;;;;;;;3.25;1.98;;;30.50;89.50;;;;;;5048594;28;20029;-75
2022/08/08 13:17:29;;;;;;;3.53;1.65;;;30.40;87.80;;;;;;5049075;28;20171;-75
2022/08/08 13:19:54;;;;;;;6.13;2.20;;;30.50;87.90;;;;;;5048873;28;20029;-75
2022/08/08 13:22:21;;;;;;;4.50;2.00;;;30.60;90.40;;;;;;5047056;28;20045;-75
2022/08/08 13:24:47;;;;;;;4.07;2.05;;;30.70;88.90;;;;;;5048504;28;20036;-75
2022/08/08 13:27:18;;;;;;;4.88;2.20;;;30.80;89.60;;;;;;5047480;28;20021;-75